Terminal Aerodrome Forecast
Issued by NWS

Home | Current Version | Previous Version | Text Only | Print | Product List | Glossary On
Versions: 1 2 3 4 5 6 7 8 9 10 11 12 13 14 15 16 17
000
FTUS41 KCAR 251120
TAFBHB
TAF
KBHB 251120Z 2512/2612 09009KT P6SM BKN250
     FM251900 10012KT P6SM VCSH BKN035
     FM260200 08018G26KT 5SM -RA OVC015
     FM260900 05016KT 4SM -RA BR OVC005=

USA.gov is the U.S. government's official web portal to all federal, state and local government web resources and services.